sensor_id;sensor_type;location;lat;lon;timestamp;pressure;altitude;pressure_sealevel;temperature;humidity
78144;BME280;67394;52.522;13.622;2023-07-13T00:01:36;100646.53;;;17.77;69.37
78144;BME280;67394;52.522;13.622;2023-07-13T00:04:03;100644.97;;;17.71;69.07
78144;BME280;67394;52.522;13.622;2023-07-13T00:06:30;100646.81;;;17.68;68.98
78144;BME280;67394;52.522;13.622;2023-07-13T00:08:57;100646.91;;;17.65;69.27
78144;BME280;67394;52.522;13.622;2023-07-13T00:11:23;100647.75;;;17.65;69.37
78144;BME280;67394;52.522;13.622;2023-07-13T00:13:50;100646.97;;;17.62;69.48
78144;BME280;67394;52.522;13.622;2023-07-13T00:16:17;100648.59;;;17.66;69.02
78144;BME280;67394;52.522;13.622;2023-07-13T00:18:45;100656.44;;;17.64;68.82
78144;BME280;67394;52.522;13.622;2023-07-13T00:21:12;100658.78;;;17.72;67.81
78144;BME280;67394;52.522;13.622;2023-07-13T00:23:40;100654.50;;;17.71;68.04
78144;BME280;67394;52.522;13.622;2023-07-13T00:26:09;100657.88;;;17.73;68.00
78144;BME280;67394;52.522;13.622;2023-07-13T00:28:38;100660.38;;;17.77;68.05
78144;BME280;67394;52.522;13.622;2023-07-13T00:31:05;100663.03;;;17.74;67.79
78144;BME280;67394;52.522;13.622;2023-07-13T00:33:34;100662.28;;;17.71;67.38
78144;BME280;67394;52.522;13.622;2023-07-13T00:36:02;100662.50;;;17.62;68.55
78144;BME280;67394;52.522;13.622;2023-07-13T00:38:29;100666.19;;;17.54;69.18
78144;BME280;67394;52.522;13.622;2023-07-13T00:40:56;100647.75;;;17.65;65.73
78144;BME280;67394;52.522;13.622;2023-07-13T00:43:25;100649.53;;;17.63;67.32
78144;BME280;67394;52.522;13.622;2023-07-13T00:48:20;100657.31;;;17.62;66.88
78144;BME280;67394;52.522;13.622;2023-07-13T00:50:51;100667.00;;;17.56;67.14
78144;BME280;67394;52.522;13.622;2023-07-13T00:53:20;100671.44;;;17.51;67.86
78144;BME280;67394;52.522;13.622;2023-07-13T00:55:48;100667.31;;;17.46;67.68
78144;BME280;67394;52.522;13.622;2023-07-13T00:58:16;100657.00;;;17.43;68.82
78144;BME280;67394;52.522;13.622;2023-07-13T01:00:44;100657.13;;;17.38;68.98
78144;BME280;67394;52.522;13.622;2023-07-13T01:03:11;100667.72;;;17.31;68.32
78144;BME280;67394;52.522;13.622;2023-07-13T01:05:38;100659.41;;;17.19;69.48
78144;BME280;67394;52.522;13.622;2023-07-13T01:08:05;100663.03;;;17.14;69.51
78144;BME280;67394;52.522;13.622;2023-07-13T01:10:31;100663.97;;;17.10;69.76
78144;BME280;67394;52.522;13.622;2023-07-13T01:12:58;100659.06;;;17.01;70.94
78144;BME280;67394;52.522;13.622;2023-07-13T01:15:44;100655.78;;;16.94;71.07
78144;BME280;67394;52.522;13.622;2023-07-13T01:18:15;100655.91;;;16.90;70.98
78144;BME280;67394;52.522;13.622;2023-07-13T01:23:21;100663.16;;;16.75;71.64
78144;BME280;67394;52.522;13.622;2023-07-13T01:25:48;100665.00;;;16.72;71.85
78144;BME280;67394;52.522;13.622;2023-07-13T01:28:15;100670.25;;;16.69;72.46
78144;BME280;67394;52.522;13.622;2023-07-13T01:30:42;100664.44;;;16.58;73.08
78144;BME280;67394;52.522;13.622;2023-07-13T01:33:10;100657.72;;;16.52;72.70
78144;BME280;67394;52.522;13.622;2023-07-13T01:35:36;100655.97;;;16.53;73.34
78144;BME280;67394;52.522;13.622;2023-07-13T01:38:04;100659.59;;;16.44;73.59
78144;BME280;67394;52.522;13.622;2023-07-13T01:40:31;100664.06;;;16.39;74.08
78144;BME280;67394;52.522;13.622;2023-07-13T01:42:58;100669.44;;;16.31;74.10
78144;BME280;67394;52.522;13.622;2023-07-13T01:45:25;100666.16;;;16.23;74.06
78144;BME280;67394;52.522;13.622;2023-07-13T01:47:52;100656.78;;;16.19;74.59
78144;BME280;67394;52.522;13.622;2023-07-13T01:50:19;100658.56;;;16.16;75.12
78144;BME280;67394;52.522;13.622;2023-07-13T01:52:47;100660.38;;;16.12;75.42
78144;BME280;67394;52.522;13.622;2023-07-13T01:55:14;100660.41;;;16.10;75.43
78144;BME280;67394;52.522;13.622;2023-07-13T01:57:41;100659.69;;;16.05;75.27
78144;BME280;67394;52.522;13.622;2023-07-13T02:00:08;100652.81;;;16.04;75.98
78144;BME280;67394;52.522;13.622;2023-07-13T02:02:35;100646.81;;;16.02;77.05
78144;BME280;67394;52.522;13.622;2023-07-13T02:05:02;100643.50;;;15.97;76.38
78144;BME280;67394;52.522;13.622;2023-07-13T02:07:29;100652.09;;;15.98;76.23
78144;BME280;67394;52.522;13.622;2023-07-13T02:09:56;100648.75;;;15.93;77.23
78144;BME280;67394;52.522;13.622;2023-07-13T02:12:23;100643.59;;;15.93;77.07
78144;BME280;67394;52.522;13.622;2023-07-13T02:14:50;100649.75;;;15.87;77.18
78144;BME280;67394;52.522;13.622;2023-07-13T02:17:17;100655.81;;;15.86;76.85
78144;BME280;67394;52.522;13.622;2023-07-13T02:19:44;100650.63;;;15.86;77.40
78144;BME280;67394;52.522;13.622;2023-07-13T02:22:12;100655.06;;;15.80;77.68
78144;BME280;67394;52.522;13.622;2023-07-13T02:24:39;100653.34;;;15.80;77.83
78144;BME280;67394;52.522;13.622;2023-07-13T02:27:05;100642.78;;;15.89;78.16
78144;BME280;67394;52.522;13.622;2023-07-13T02:29:32;100644.78;;;15.78;77.85
78144;BME280;67394;52.522;13.622;2023-07-13T02:31:59;100648.31;;;15.74;78.32
78144;BME280;67394;52.522;13.622;2023-07-13T02:34:25;100640.75;;;15.65;78.80
78144;BME280;67394;52.522;13.622;2023-07-13T02:36:52;100636.50;;;15.62;78.24
78144;BME280;67394;52.522;13.622;2023-07-13T02:39:19;100645.19;;;15.58;78.49
78144;BME280;67394;52.522;13.622;2023-07-13T02:41:45;100649.66;;;15.50;78.75
78144;BME280;67394;52.522;13.622;2023-07-13T02:44:13;100646.31;;;15.45;79.47
78144;BME280;67394;52.522;13.622;2023-07-13T02:46:40;100653.22;;;15.45;79.47
78144;BME280;67394;52.522;13.622;2023-07-13T02:49:07;100657.66;;;15.36;79.28
78144;BME280;67394;52.522;13.622;2023-07-13T02:51:34;100658.59;;;15.35;79.35
78144;BME280;67394;52.522;13.622;2023-07-13T02:54:04;100658.66;;;15.31;79.51
78144;BME280;67394;52.522;13.622;2023-07-13T02:56:32;100654.38;;;15.30;80.09
78144;BME280;67394;52.522;13.622;2023-07-13T02:58:58;100657.81;;;15.30;80.34
78144;BME280;67394;52.522;13.622;2023-07-13T03:01:25;100663.03;;;15.26;80.23
78144;BME280;67394;52.522;13.622;2023-07-13T03:03:52;100670.03;;;15.22;80.64
78144;BME280;67394;52.522;13.622;2023-07-13T03:06:19;100674.34;;;15.22;81.10
78144;BME280;67394;52.522;13.622;2023-07-13T03:08:46;100671.78;;;15.20;80.83
78144;BME280;67394;52.522;13.622;2023-07-13T03:11:17;100670.06;;;15.19;81.14
78144;BME280;67394;52.522;13.622;2023-07-13T03:13:44;100672.66;;;15.19;80.55
78144;BME280;67394;52.522;13.622;2023-07-13T03:16:11;100671.72;;;15.23;81.66
78144;BME280;67394;52.522;13.622;2023-07-13T03:18:41;100676.00;;;15.24;81.35
78144;BME280;67394;52.522;13.622;2023-07-13T03:21:09;100675.88;;;15.30;80.60
78144;BME280;67394;52.522;13.622;2023-07-13T03:23:35;100677.56;;;15.33;80.79
78144;BME280;67394;52.522;13.622;2023-07-13T03:26:18;100675.03;;;15.30;80.59
78144;BME280;67394;52.522;13.622;2023-07-13T03:28:45;100677.63;;;15.28;81.15
78144;BME280;67394;52.522;13.622;2023-07-13T03:31:16;100684.47;;;15.32;80.42
78144;BME280;67394;52.522;13.622;2023-07-13T03:33:46;100686.19;;;15.32;80.64
78144;BME280;67394;52.522;13.622;2023-07-13T03:36:23;100682.75;;;15.31;81.31
78144;BME280;67394;52.522;13.622;2023-07-13T03:38:53;100687.06;;;15.31;81.10
78144;BME280;67394;52.522;13.622;2023-07-13T03:41:21;100687.78;;;15.37;81.51
78144;BME280;67394;52.522;13.622;2023-07-13T03:43:49;100691.25;;;15.36;81.16
78144;BME280;67394;52.522;13.622;2023-07-13T03:46:16;100696.41;;;15.36;81.00
78144;BME280;67394;52.522;13.622;2023-07-13T03:48:45;100698.13;;;15.37;80.61
78144;BME280;67394;52.522;13.622;2023-07-13T03:51:15;100698.91;;;15.43;82.38
78144;BME280;67394;52.522;13.622;2023-07-13T03:53:43;100703.22;;;15.41;81.93
78144;BME280;67394;52.522;13.622;2023-07-13T03:56:14;100702.41;;;15.38;81.68
78144;BME280;67394;52.522;13.622;2023-07-13T03:58:43;100702.41;;;15.38;81.44
78144;BME280;67394;52.522;13.622;2023-07-13T04:01:11;100701.53;;;15.39;81.27
78144;BME280;67394;52.522;13.622;2023-07-13T04:03:38;100697.13;;;15.45;83.75
78144;BME280;67394;52.522;13.622;2023-07-13T04:06:05;100702.28;;;15.46;82.81
78144;BME280;67394;52.522;13.622;2023-07-13T04:08:36;100706.53;;;15.47;82.72
78144;BME280;67394;52.522;13.622;2023-07-13T04:11:04;100709.06;;;15.50;82.07
78144;BME280;67394;52.522;13.622;2023-07-13T04:13:31;100706.47;;;15.52;82.30
78144;BME280;67394;52.522;13.622;2023-07-13T04:15:58;100709.88;;;15.55;82.62
78144;BME280;67394;52.522;13.622;2023-07-13T04:18:25;100709.78;;;15.58;82.03
78144;BME280;67394;52.522;13.622;2023-07-13T04:20:51;100708.88;;;15.61;82.32
78144;BME280;67394;52.522;13.622;2023-07-13T04:23:18;100718.28;;;15.65;82.33
78144;BME280;67394;52.522;13.622;2023-07-13T04:25:47;100717.31;;;15.69;82.27
78144;BME280;67394;52.522;13.622;2023-07-13T04:28:14;100722.41;;;15.73;82.12
78144;BME280;67394;52.522;13.622;2023-07-13T04:30:43;100721.47;;;15.78;81.47
78144;BME280;67394;52.522;13.622;2023-07-13T04:33:10;100721.44;;;15.79;82.17
78144;BME280;67394;52.522;13.622;2023-07-13T04:35:37;100722.81;;;15.95;81.03
78144;BME280;67394;52.522;13.622;2023-07-13T04:38:03;100715.63;;;16.09;80.29
78144;BME280;67394;52.522;13.622;2023-07-13T04:40:30;100723.22;;;16.17;79.89
78144;BME280;67394;52.522;13.622;2023-07-13T04:42:57;100732.44;;;16.29;79.65
78144;BME280;67394;52.522;13.622;2023-07-13T04:45:24;100725.50;;;16.31;79.99
78144;BME280;67394;52.522;13.622;2023-07-13T04:47:51;100732.31;;;16.33;79.67
78144;BME280;67394;52.522;13.622;2023-07-13T04:50:18;100736.22;;;16.51;78.62
78144;BME280;67394;52.522;13.622;2023-07-13T04:52:45;100743.91;;;16.54;78.87
78144;BME280;67394;52.522;13.622;2023-07-13T04:55:11;100746.25;;;16.65;78.43
78144;BME280;67394;52.522;13.622;2023-07-13T04:57:38;100742.69;;;16.70;78.77
78144;BME280;67394;52.522;13.622;2023-07-13T05:00:05;100734.66;;;16.81;78.14
78144;BME280;67394;52.522;13.622;2023-07-13T05:02:32;100741.28;;;16.93;77.02
78144;BME280;67394;52.522;13.622;2023-07-13T05:04:59;100741.94;;;17.01;77.00
78144;BME280;67394;52.522;13.622;2023-07-13T05:07:26;100750.53;;;17.03;78.13
78144;BME280;67394;52.522;13.622;2023-07-13T05:09:53;100755.53;;;17.09;76.39
78144;BME280;67394;52.522;13.622;2023-07-13T05:12:19;100750.22;;;17.15;75.99
78144;BME280;67394;52.522;13.622;2023-07-13T05:14:46;100755.22;;;17.21;76.44
78144;BME280;67394;52.522;13.622;2023-07-13T05:17:13;100757.69;;;17.26;76.75
78144;BME280;67394;52.522;13.622;2023-07-13T05:19:40;100760.16;;;17.30;76.69
78144;BME280;67394;52.522;13.622;2023-07-13T05:22:06;100758.06;;;17.44;75.11
78144;BME280;67394;52.522;13.622;2023-07-13T05:24:33;100755.84;;;17.63;74.46
78144;BME280;67394;52.522;13.622;2023-07-13T05:27:03;100758.38;;;17.65;74.50
78144;BME280;67394;52.522;13.622;2023-07-13T05:29:30;100762.22;;;17.81;73.85
78144;BME280;67394;52.522;13.622;2023-07-13T05:31:56;100759.53;;;17.85;72.90
78144;BME280;67394;52.522;13.622;2023-07-13T05:34:23;100761.31;;;17.83;73.29
78144;BME280;67394;52.522;13.622;2023-07-13T05:36:50;100768.09;;;17.89;73.81
78144;BME280;67394;52.522;13.622;2023-07-13T05:39:17;100759.97;;;18.00;71.83
78144;BME280;67394;52.522;13.622;2023-07-13T05:41:46;100768.88;;;18.20;72.46
78144;BME280;67394;52.522;13.622;2023-07-13T05:44:12;100770.72;;;18.17;71.26
78144;BME280;67394;52.522;13.622;2023-07-13T05:46:39;100769.78;;;18.19;71.31
78144;BME280;67394;52.522;13.622;2023-07-13T05:49:06;100773.88;;;18.26;71.11
78144;BME280;67394;52.522;13.622;2023-07-13T05:51:33;100767.53;;;18.35;70.67
78144;BME280;67394;52.522;13.622;2023-07-13T05:53:59;100770.91;;;18.39;70.87
78144;BME280;67394;52.522;13.622;2023-07-13T05:56:26;100770.19;;;18.63;68.92
78144;BME280;67394;52.522;13.622;2023-07-13T05:58:53;100770.78;;;18.71;69.13
78144;BME280;67394;52.522;13.622;2023-07-13T06:01:21;100761.47;;;18.90;67.61
78144;BME280;67394;52.522;13.622;2023-07-13T06:03:48;100761.88;;;19.05;67.33
78144;BME280;67394;52.522;13.622;2023-07-13T06:06:15;100771.44;;;19.04;66.73
78144;BME280;67394;52.522;13.622;2023-07-13T06:08:42;100767.63;;;19.14;67.06
78144;BME280;67394;52.522;13.622;2023-07-13T06:11:15;100774.09;;;19.27;65.80
78144;BME280;67394;52.522;13.622;2023-07-13T06:13:42;100772.75;;;19.41;65.32
78144;BME280;67394;52.522;13.622;2023-07-13T06:16:09;100763.50;;;19.58;64.25
78144;BME280;67394;52.522;13.622;2023-07-13T06:18:37;100764.41;;;19.57;64.45
78144;BME280;67394;52.522;13.622;2023-07-13T06:21:15;100774.44;;;19.68;64.32
78144;BME280;67394;52.522;13.622;2023-07-13T06:23:42;100764.75;;;19.71;63.93
78144;BME280;67394;52.522;13.622;2023-07-13T06:26:10;100767.84;;;19.81;63.89
78144;BME280;67394;52.522;13.622;2023-07-13T06:28:38;100771.09;;;19.88;63.64
78144;BME280;67394;52.522;13.622;2023-07-13T06:31:06;100764.19;;;19.87;62.95
78144;BME280;67394;52.522;13.622;2023-07-13T06:33:34;100763.50;;;19.82;62.27
78144;BME280;67394;52.522;13.622;2023-07-13T06:36:02;100771.19;;;19.85;63.68
78144;BME280;67394;52.522;13.622;2023-07-13T06:38:32;100764.59;;;19.99;62.64
78144;BME280;67394;52.522;13.622;2023-07-13T06:40:58;100763.06;;;19.94;62.49
78144;BME280;67394;52.522;13.622;2023-07-13T06:43:25;100758.44;;;20.02;62.14
78144;BME280;67394;52.522;13.622;2023-07-13T06:45:54;100767.00;;;20.04;61.90
78144;BME280;67394;52.522;13.622;2023-07-13T06:48:22;100756.81;;;20.21;61.29
78144;BME280;67394;52.522;13.622;2023-07-13T06:50:49;100761.88;;;20.24;61.54
78144;BME280;67394;52.522;13.622;2023-07-13T06:53:17;100770.38;;;20.29;61.86
78144;BME280;67394;52.522;13.622;2023-07-13T06:55:45;100766.31;;;20.22;61.45
78144;BME280;67394;52.522;13.622;2023-07-13T06:58:12;100775.69;;;20.26;61.37
78144;BME280;67394;52.522;13.622;2023-07-13T07:00:39;100776.91;;;20.41;61.03
78144;BME280;67394;52.522;13.622;2023-07-13T07:03:06;100774.47;;;20.58;62.13
78144;BME280;67394;52.522;13.622;2023-07-13T07:05:33;100768.25;;;20.62;59.75
78144;BME280;67394;52.522;13.622;2023-07-13T07:08:01;100766.91;;;20.74;59.97
78144;BME280;67394;52.522;13.622;2023-07-13T07:10:30;100770.47;;;20.71;60.08
78144;BME280;67394;52.522;13.622;2023-07-13T07:12:57;100765.25;;;20.71;60.27
78144;BME280;67394;52.522;13.622;2023-07-13T07:15:25;100765.47;;;20.87;59.92
78144;BME280;67394;52.522;13.622;2023-07-13T07:17:51;100763.34;;;20.97;60.10
78144;BME280;67394;52.522;13.622;2023-07-13T07:20:18;100758.34;;;21.12;57.65
78144;BME280;67394;52.522;13.622;2023-07-13T07:22:45;100762.91;;;21.07;58.50
78144;BME280;67394;52.522;13.622;2023-07-13T07:25:13;100765.09;;;21.18;58.75
78144;BME280;67394;52.522;13.622;2023-07-13T07:27:40;100755.97;;;21.28;58.05
78144;BME280;67394;52.522;13.622;2023-07-13T07:30:10;100758.09;;;21.39;58.00
78144;BME280;67394;52.522;13.622;2023-07-13T07:32:39;100765.59;;;21.26;56.09
78144;BME280;67394;52.522;13.622;2023-07-13T07:35:09;100762.41;;;21.19;56.90
78144;BME280;67394;52.522;13.622;2023-07-13T07:37:35;100769.84;;;21.29;57.42
78144;BME280;67394;52.522;13.622;2023-07-13T07:40:06;100765.59;;;21.46;54.04
78144;BME280;67394;52.522;13.622;2023-07-13T07:42:36;100772.97;;;21.76;52.84
78144;BME280;67394;52.522;13.622;2023-07-13T07:45:02;100774.31;;;21.84;52.54
78144;BME280;67394;52.522;13.622;2023-07-13T07:47:29;100777.22;;;21.97;52.16
78144;BME280;67394;52.522;13.622;2023-07-13T07:49:56;100777.13;;;22.19;51.76
78144;BME280;67394;52.522;13.622;2023-07-13T07:52:23;100774.84;;;22.30;51.84
78144;BME280;67394;52.522;13.622;2023-07-13T07:54:49;100778.78;;;22.39;52.17
78144;BME280;67394;52.522;13.622;2023-07-13T07:57:19;100777.34;;;22.33;52.22
78144;BME280;67394;52.522;13.622;2023-07-13T08:00:06;100774.00;;;22.30;50.87
78144;BME280;67394;52.522;13.622;2023-07-13T08:02:36;100771.22;;;22.51;52.34
78144;BME280;67394;52.522;13.622;2023-07-13T08:05:23;100771.78;;;22.77;51.52
78144;BME280;67394;52.522;13.622;2023-07-13T08:08:08;100780.16;;;23.18;49.60
78144;BME280;67394;52.522;13.622;2023-07-13T08:10:36;100767.97;;;23.34;48.29
78144;BME280;67394;52.522;13.622;2023-07-13T08:13:02;100768.75;;;23.36;48.31
78144;BME280;67394;52.522;13.622;2023-07-13T08:15:32;100792.22;;;22.86;48.42
78144;BME280;67394;52.522;13.622;2023-07-13T08:17:59;100784.84;;;22.77;49.83
78144;BME280;67394;52.522;13.622;2023-07-13T08:20:25;100782.56;;;22.88;49.57
78144;BME280;67394;52.522;13.622;2023-07-13T08:22:52;100782.75;;;23.00;47.92
78144;BME280;67394;52.522;13.622;2023-07-13T08:25:19;100776.25;;;23.09;49.66
78144;BME280;67394;52.522;13.622;2023-07-13T08:27:46;100783.63;;;23.01;47.96
78144;BME280;67394;52.522;13.622;2023-07-13T08:30:12;100789.94;;;22.97;48.34
78144;BME280;67394;52.522;13.622;2023-07-13T08:32:39;100786.94;;;23.05;48.58
78144;BME280;67394;52.522;13.622;2023-07-13T08:35:07;100790.56;;;23.19;49.52
78144;BME280;67394;52.522;13.622;2023-07-13T08:37:33;100781.53;;;23.25;51.07
78144;BME280;67394;52.522;13.622;2023-07-13T08:40:00;100789.91;;;23.49;48.16
78144;BME280;67394;52.522;13.622;2023-07-13T08:42:39;100786.66;;;23.44;46.44
78144;BME280;67394;52.522;13.622;2023-07-13T08:45:24;100790.91;;;23.63;47.97
78144;BME280;67394;52.522;13.622;2023-07-13T08:50:31;100784.94;;;23.77;47.08
78144;BME280;67394;52.522;13.622;2023-07-13T08:53:12;100792.59;;;23.97;47.68
78144;BME280;67394;52.522;13.622;2023-07-13T08:55:40;100793.06;;;23.73;46.74
78144;BME280;67394;52.522;13.622;2023-07-13T08:58:17;100802.41;;;23.94;46.90
78144;BME280;67394;52.522;13.622;2023-07-13T09:01:24;100804.50;;;24.19;46.54
78144;BME280;67394;52.522;13.622;2023-07-13T09:03:56;100803.28;;;23.77;45.12
78144;BME280;67394;52.522;13.622;2023-07-13T09:06:33;100807.94;;;23.38;45.64
78144;BME280;67394;52.522;13.622;2023-07-13T09:09:07;100804.53;;;23.35;45.87
78144;BME280;67394;52.522;13.622;2023-07-13T09:16:56;100812.09;;;23.24;46.32
78144;BME280;67394;52.522;13.622;2023-07-13T09:19:28;100811.63;;;23.16;45.84
78144;BME280;67394;52.522;13.622;2023-07-13T09:21:56;100809.16;;;23.13;47.09
78144;BME280;67394;52.522;13.622;2023-07-13T09:26:54;100807.50;;;23.80;45.29
78144;BME280;67394;52.522;13.622;2023-07-13T09:29:32;100810.25;;;23.61;45.96
78144;BME280;67394;52.522;13.622;2023-07-13T09:32:06;100801.44;;;23.79;46.38
78144;BME280;67394;52.522;13.622;2023-07-13T09:34:35;100807.28;;;24.16;46.07
78144;BME280;67394;52.522;13.622;2023-07-13T09:37:02;100799.75;;;24.42;43.81
78144;BME280;67394;52.522;13.622;2023-07-13T09:39:34;100796.94;;;24.61;42.50
78144;BME280;67394;52.522;13.622;2023-07-13T09:42:17;100799.31;;;24.66;43.51
78144;BME280;67394;52.522;13.622;2023-07-13T09:47:23;100798.69;;;24.76;41.71
78144;BME280;67394;52.522;13.622;2023-07-13T09:52:43;100805.25;;;25.29;40.84
78144;BME280;67394;52.522;13.622;2023-07-13T09:55:36;100799.41;;;25.68;39.98
78144;BME280;67394;52.522;13.622;2023-07-13T10:00:38;100801.59;;;25.62;38.12
78144;BME280;67394;52.522;13.622;2023-07-13T10:03:21;100805.75;;;25.50;38.42
78144;BME280;67394;52.522;13.622;2023-07-13T10:05:50;100804.97;;;25.34;38.37
78144;BME280;67394;52.522;13.622;2023-07-13T10:08:26;100803.69;;;25.41;39.42
78144;BME280;67394;52.522;13.622;2023-07-13T10:13:30;100801.75;;;26.01;38.64
78144;BME280;67394;52.522;13.622;2023-07-13T10:15:58;100803.50;;;26.43;38.97
78144;BME280;67394;52.522;13.622;2023-07-13T10:18:26;100796.13;;;25.79;37.79
78144;BME280;67394;52.522;13.622;2023-07-13T10:21:08;100807.59;;;25.78;38.74
78144;BME280;67394;52.522;13.622;2023-07-13T10:24:06;100799.34;;;25.84;37.67
78144;BME280;67394;52.522;13.622;2023-07-13T10:26:45;100803.88;;;25.38;38.28
78144;BME280;67394;52.522;13.622;2023-07-13T10:29:14;100810.44;;;25.45;39.13
78144;BME280;67394;52.522;13.622;2023-07-13T10:31:44;100792.75;;;25.77;37.48
78144;BME280;67394;52.522;13.622;2023-07-13T10:34:12;100802.16;;;25.81;36.59
78144;BME280;67394;52.522;13.622;2023-07-13T10:36:44;100806.06;;;25.60;37.19
78144;BME280;67394;52.522;13.622;2023-07-13T10:39:26;100813.97;;;26.02;36.96
78144;BME280;67394;52.522;13.622;2023-07-13T10:41:59;100815.97;;;25.54;36.83
78144;BME280;67394;52.522;13.622;2023-07-13T10:44:31;100807.91;;;25.58;36.97
78144;BME280;67394;52.522;13.622;2023-07-13T10:47:04;100812.22;;;25.59;37.51
78144;BME280;67394;52.522;13.622;2023-07-13T10:49:34;100809.44;;;26.33;35.84
78144;BME280;67394;52.522;13.622;2023-07-13T10:52:03;100793.72;;;26.45;35.72
78144;BME280;67394;52.522;13.622;2023-07-13T10:54:33;100803.78;;;26.24;36.33
78144;BME280;67394;52.522;13.622;2023-07-13T10:57:26;100800.59;;;26.87;37.43
78144;BME280;67394;52.522;13.622;2023-07-13T11:02:29;100795.41;;;27.13;34.37
78144;BME280;67394;52.522;13.622;2023-07-13T11:04:57;100798.03;;;27.00;32.78
78144;BME280;67394;52.522;13.622;2023-07-13T11:07:27;100811.28;;;26.72;33.45
78144;BME280;67394;52.522;13.622;2023-07-13T11:09:58;100797.41;;;26.96;33.93
78144;BME280;67394;52.522;13.622;2023-07-13T11:19:54;100798.50;;;26.39;33.68
78144;BME280;67394;52.522;13.622;2023-07-13T11:22:53;100813.56;;;26.08;32.82
78144;BME280;67394;52.522;13.622;2023-07-13T11:25:35;100798.91;;;26.86;33.85
78144;BME280;67394;52.522;13.622;2023-07-13T11:33:20;100784.59;;;27.93;34.45
78144;BME280;67394;52.522;13.622;2023-07-13T11:38:19;100780.25;;;28.05;32.34
78144;BME280;67394;52.522;13.622;2023-07-13T11:40:47;100771.84;;;28.36;31.07
78144;BME280;67394;52.522;13.622;2023-07-13T11:43:22;100766.31;;;28.03;31.91
78144;BME280;67394;52.522;13.622;2023-07-13T11:45:50;100775.44;;;27.86;32.16
78144;BME280;67394;52.522;13.622;2023-07-13T11:48:22;100776.41;;;27.85;32.76
78144;BME280;67394;52.522;13.622;2023-07-13T11:50:51;100771.72;;;27.13;32.51
78144;BME280;67394;52.522;13.622;2023-07-13T11:53:19;100769.97;;;27.51;31.50
78144;BME280;67394;52.522;13.622;2023-07-13T11:55:47;100771.97;;;27.86;31.77
78144;BME280;67394;52.522;13.622;2023-07-13T11:58:20;100779.91;;;28.22;31.66
78144;BME280;67394;52.522;13.622;2023-07-13T12:00:48;100767.97;;;27.67;30.50
78144;BME280;67394;52.522;13.622;2023-07-13T12:03:22;100767.25;;;28.27;31.89
78144;BME280;67394;52.522;13.622;2023-07-13T12:06:06;100770.19;;;28.10;30.25
78144;BME280;67394;52.522;13.622;2023-07-13T12:08:49;100776.00;;;28.28;30.81
78144;BME280;67394;52.522;13.622;2023-07-13T12:11:16;100773.75;;;28.34;30.41
78144;BME280;67394;52.522;13.622;2023-07-13T12:13:45;100774.03;;;28.06;30.17
78144;BME280;67394;52.522;13.622;2023-07-13T12:16:16;100776.94;;;28.14;30.64
78144;BME280;67394;52.522;13.622;2023-07-13T12:18:44;100773.97;;;28.55;30.88
78144;BME280;67394;52.522;13.622;2023-07-13T12:21:13;100772.00;;;28.46;30.05
78144;BME280;67394;52.522;13.622;2023-07-13T12:23:43;100770.72;;;28.28;30.64
78144;BME280;67394;52.522;13.622;2023-07-13T12:26:11;100771.75;;;28.38;31.13
78144;BME280;67394;52.522;13.622;2023-07-13T12:31:43;100767.59;;;28.47;30.49
78144;BME280;67394;52.522;13.622;2023-07-13T12:34:16;100774.94;;;27.43;30.08
78144;BME280;67394;52.522;13.622;2023-07-13T12:36:53;100766.16;;;27.81;32.33
78144;BME280;67394;52.522;13.622;2023-07-13T12:39:56;100760.69;;;27.46;31.01
78144;BME280;67394;52.522;13.622;2023-07-13T12:42:27;100759.22;;;27.54;31.45
78144;BME280;67394;52.522;13.622;2023-07-13T12:47:24;100759.94;;;27.82;30.88
78144;BME280;67394;52.522;13.622;2023-07-13T12:49:57;100763.75;;;27.27;32.01
78144;BME280;67394;52.522;13.622;2023-07-13T12:52:30;100761.25;;;27.63;32.00
78144;BME280;67394;52.522;13.622;2023-07-13T12:55:03;100776.38;;;27.47;32.21
78144;BME280;67394;52.522;13.622;2023-07-13T12:57:39;100769.63;;;27.94;33.37
78144;BME280;67394;52.522;13.622;2023-07-13T13:00:35;100767.88;;;27.56;32.75
78144;BME280;67394;52.522;13.622;2023-07-13T13:03:29;100762.03;;;27.89;31.68
78144;BME280;67394;52.522;13.622;2023-07-13T13:05:58;100762.63;;;28.42;30.52
78144;BME280;67394;52.522;13.622;2023-07-13T13:08:25;100775.06;;;28.40;30.05
78144;BME280;67394;52.522;13.622;2023-07-13T13:10:51;100772.84;;;28.10;30.40
78144;BME280;67394;52.522;13.622;2023-07-13T13:13:18;100767.91;;;28.05;30.58
78144;BME280;67394;52.522;13.622;2023-07-13T13:15:45;100767.06;;;28.05;30.33
78144;BME280;67394;52.522;13.622;2023-07-13T13:18:16;100767.47;;;28.48;29.82
78144;BME280;67394;52.522;13.622;2023-07-13T13:20:43;100763.84;;;28.73;30.51
78144;BME280;67394;52.522;13.622;2023-07-13T13:23:14;100772.56;;;28.86;30.42
78144;BME280;67394;52.522;13.622;2023-07-13T13:25:41;100769.81;;;28.40;30.26
78144;BME280;67394;52.522;13.622;2023-07-13T13:28:16;100767.53;;;28.59;30.97
78144;BME280;67394;52.522;13.622;2023-07-13T13:30:44;100770.63;;;28.17;30.38
78144;BME280;67394;52.522;13.622;2023-07-13T13:33:14;100766.69;;;27.86;29.68
78144;BME280;67394;52.522;13.622;2023-07-13T13:35:42;100771.31;;;27.82;29.70
78144;BME280;67394;52.522;13.622;2023-07-13T13:38:16;100776.03;;;28.02;29.50
78144;BME280;67394;52.522;13.622;2023-07-13T13:40:44;100773.38;;;28.15;30.33
78144;BME280;67394;52.522;13.622;2023-07-13T13:45:42;100782.81;;;28.30;30.65